createdAt,value
2023-03-19T00:00:29.040Z,101064.22
2023-03-19T00:02:56.310Z,101058.63
2023-03-19T00:05:23.269Z,101048.00
2023-03-19T00:07:52.950Z,101047.72
2023-03-19T00:10:19.719Z,101070.97
2023-03-19T00:12:46.650Z,101050.78
2023-03-19T00:15:16.141Z,101050.25
2023-03-19T00:17:43.372Z,101042.38
2023-03-19T00:20:11.939Z,101035.94
2023-03-19T00:22:39.795Z,101024.47
2023-03-19T00:25:08.298Z,101037.91
2023-03-19T00:27:35.769Z,101040.72
2023-03-19T00:30:02.700Z,101037.91
2023-03-19T00:32:30.171Z,101032.31
2023-03-19T00:34:57.150Z,101038.50
2023-03-19T00:37:23.866Z,101019.72
2023-03-19T00:39:50.649Z,101032.91
2023-03-19T00:42:17.877Z,101017.22
2023-03-19T00:44:44.587Z,101006.00
2023-03-19T00:47:11.438Z,101023.94
2023-03-19T00:49:38.298Z,101029.00
2023-03-19T00:52:05.164Z,101020.84
2023-03-19T00:54:32.632Z,101021.13
2023-03-19T00:56:59.526Z,100988.97
2023-03-19T00:59:26.474Z,100999.34
2023-03-19T01:01:54.548Z,101021.44
2023-03-19T01:04:21.969Z,101012.78
2023-03-19T01:06:48.996Z,100989.25
2023-03-19T01:09:16.067Z,100975.28
2023-03-19T01:11:42.929Z,101007.44
2023-03-19T01:14:09.804Z,100985.34
2023-03-19T01:16:36.869Z,101015.28
2023-03-19T01:19:03.934Z,101011.09
2023-03-19T01:21:32.438Z,100955.69
2023-03-19T01:23:59.175Z,101018.38
2023-03-19T01:26:26.350Z,100979.19
2023-03-19T01:28:53.225Z,100977.78
2023-03-19T01:31:20.039Z,101005.50
2023-03-19T01:33:47.885Z,101002.69
2023-03-19T01:36:14.778Z,101013.34
2023-03-19T01:38:41.502Z,100968.53
2023-03-19T01:41:08.384Z,101006.63
2023-03-19T01:43:35.098Z,101017.25
2023-03-19T01:46:03.231Z,101013.34
2023-03-19T01:48:54.854Z,101003.81
2023-03-19T01:51:24.888Z,100973.53
2023-03-19T01:53:56.620Z,100972.44
2023-03-19T01:56:27.992Z,100982.47
2023-03-19T01:59:01.969Z,101012.16
2023-03-19T02:01:29.510Z,101015.22
2023-03-19T02:03:56.620Z,101010.97
2023-03-19T02:06:23.395Z,100981.25
2023-03-19T02:08:50.366Z,100987.16
2023-03-19T02:11:17.179Z,101007.03
2023-03-19T02:13:43.970Z,101005.34
2023-03-19T02:16:11.049Z,101003.13
2023-03-19T02:18:37.905Z,101002.88
2023-03-19T02:21:12.250Z,100991.41
2023-03-19T02:23:47.819Z,100986.66
2023-03-19T02:26:15.733Z,100981.88
2023-03-19T02:28:44.163Z,100947.75
2023-03-19T02:31:11.495Z,100979.09
2023-03-19T02:33:38.355Z,100935.66
2023-03-19T02:36:06.521Z,100983.00
2023-03-19T02:38:34.029Z,100983.88
2023-03-19T02:41:01.654Z,100984.72
2023-03-19T02:43:29.784Z,100972.69
2023-03-19T02:45:56.640Z,100968.78
2023-03-19T02:48:23.810Z,100987.00
2023-03-19T02:50:50.964Z,100983.66
2023-03-19T02:53:17.731Z,100979.41
2023-03-19T02:55:44.587Z,100976.97
2023-03-19T02:58:11.444Z,100976.09
2023-03-19T03:00:38.329Z,100968.00
2023-03-19T03:03:06.826Z,100969.88
2023-03-19T03:05:33.975Z,100965.16
2023-03-19T03:08:00.828Z,100963.75
2023-03-19T03:10:27.757Z,100964.00
2023-03-19T03:12:54.796Z,100955.91
2023-03-19T03:15:21.831Z,100939.94
2023-03-19T03:17:48.790Z,100948.31
2023-03-19T03:20:17.790Z,100905.78
2023-03-19T03:22:44.651Z,100964.56
2023-03-19T03:25:11.551Z,100944.69
2023-03-19T03:27:38.462Z,100934.91
2023-03-19T03:30:08.199Z,100955.34
2023-03-19T03:32:38.241Z,100927.94
2023-03-19T03:35:06.253Z,100962.34
2023-03-19T03:37:34.314Z,100957.59
2023-03-19T03:40:07.011Z,100963.19
2023-03-19T03:42:34.384Z,100964.31
2023-03-19T03:45:01.139Z,100959.84
2023-03-19T03:47:27.942Z,100952.81
2023-03-19T03:49:54.659Z,100961.50
2023-03-19T03:52:21.452Z,100868.28
2023-03-19T03:54:49.532Z,100957.31
2023-03-19T03:57:16.300Z,100965.69
2023-03-19T03:59:43.096Z,100973.81
2023-03-19T04:02:10.600Z,100973.78
2023-03-19T04:04:37.374Z,100981.88
2023-03-19T04:07:04.422Z,100987.19
2023-03-19T04:09:31.548Z,100985.22
2023-03-19T04:11:58.277Z,100986.88
2023-03-19T04:14:25.249Z,100955.50
2023-03-19T04:16:52.329Z,100978.19
2023-03-19T04:19:19.417Z,100993.84
2023-03-19T04:21:46.927Z,100990.19
2023-03-19T04:24:14.502Z,100990.72
2023-03-19T04:26:41.299Z,100981.50
2023-03-19T04:29:08.877Z,100952.31
2023-03-19T04:31:35.698Z,100960.97
2023-03-19T04:34:02.773Z,100980.34
2023-03-19T04:36:29.579Z,100984.56
2023-03-19T04:38:57.136Z,100977.25
2023-03-19T04:41:24.026Z,100976.13
2023-03-19T04:43:50.904Z,100990.69
2023-03-19T04:46:17.769Z,100982.25
2023-03-19T04:48:45.646Z,100985.09
2023-03-19T04:51:12.405Z,101006.06
2023-03-19T04:53:40.127Z,100977.19
2023-03-19T04:56:08.074Z,100997.66
2023-03-19T04:58:35.108Z,101008.28
2023-03-19T05:01:02.336Z,101002.41
2023-03-19T05:03:31.314Z,101000.72
2023-03-19T05:05:58.229Z,100981.13
2023-03-19T05:08:25.163Z,100987.78
2023-03-19T05:10:51.937Z,101018.03
2023-03-19T05:13:21.411Z,100985.81
2023-03-19T05:15:48.749Z,101010.19
2023-03-19T05:18:15.545Z,101023.03
2023-03-19T05:20:42.838Z,100984.94
2023-03-19T05:23:09.720Z,101003.97
2023-03-19T05:25:36.444Z,101003.41
2023-03-19T05:28:04.187Z,101008.44
2023-03-19T05:30:31.959Z,101005.56
2023-03-19T05:32:59.831Z,101031.34
2023-03-19T05:35:27.830Z,100956.47
2023-03-19T05:37:54.761Z,101031.06
2023-03-19T05:40:22.311Z,101013.88
2023-03-19T05:42:49.184Z,101004.38
2023-03-19T05:45:17.598Z,101035.22
2023-03-19T05:47:45.049Z,101031.59
2023-03-19T05:50:12.390Z,101038.53
2023-03-19T05:52:39.246Z,101041.59
2023-03-19T05:55:06.923Z,101023.91
2023-03-19T05:57:33.634Z,101048.56
2023-03-19T06:00:00.371Z,101049.94
2023-03-19T06:02:27.376Z,101034.56
2023-03-19T06:04:54.227Z,101042.94
2023-03-19T06:07:21.192Z,101045.78
2023-03-19T06:09:48.015Z,101046.09
2023-03-19T06:12:14.843Z,101053.06
2023-03-19T06:14:41.664Z,101039.69
2023-03-19T06:17:09.633Z,101050.31
2023-03-19T06:19:36.493Z,101057.56
2023-03-19T06:22:03.257Z,101052.81
2023-03-19T06:24:30.892Z,101035.69
2023-03-19T06:26:57.799Z,101060.97
2023-03-19T06:29:24.630Z,101052.00
2023-03-19T06:31:51.713Z,101049.19
2023-03-19T06:34:18.900Z,101042.75
2023-03-19T06:36:45.812Z,101054.75
2023-03-19T06:39:13.122Z,101055.31
2023-03-19T06:41:40.084Z,101046.84
2023-03-19T06:44:06.999Z,101059.16
2023-03-19T06:46:33.807Z,101058.03
2023-03-19T06:49:00.950Z,101060.06
2023-03-19T06:51:28.009Z,101054.75
2023-03-19T06:53:55.165Z,100997.88
2023-03-19T06:56:22.139Z,101052.56
2023-03-19T06:58:48.918Z,101054.84
2023-03-19T07:01:16.831Z,101061.25
2023-03-19T07:03:43.771Z,101054.53
2023-03-19T07:06:10.621Z,101062.63
2023-03-19T07:08:37.432Z,101060.66
2023-03-19T07:11:05.664Z,101046.09
2023-03-19T07:13:33.277Z,101056.97
2023-03-19T07:16:00.554Z,101029.44
2023-03-19T07:18:27.368Z,101033.63
2023-03-19T07:20:54.166Z,101055.84
2023-03-19T07:23:20.996Z,101052.22
2023-03-19T07:25:47.852Z,101031.22
2023-03-19T07:28:14.821Z,101052.81
2023-03-19T07:30:41.674Z,101009.44
2023-03-19T07:33:08.606Z,101059.97
2023-03-19T07:35:35.575Z,101059.13
2023-03-19T07:38:02.990Z,101068.88
2023-03-19T07:40:29.858Z,101067.69
2023-03-19T07:42:56.599Z,101075.41
2023-03-19T07:45:23.520Z,100958.97
2023-03-19T07:47:51.671Z,101019.69
2023-03-19T07:50:18.616Z,101066.56
2023-03-19T07:52:49.342Z,101004.66
2023-03-19T07:55:16.183Z,100997.63
2023-03-19T07:57:43.027Z,101069.22
2023-03-19T08:00:10.881Z,101077.03
2023-03-19T08:02:37.628Z,101055.13
2023-03-19T08:05:04.924Z,101053.72
2023-03-19T08:07:32.235Z,101069.81
2023-03-19T08:09:58.985Z,101070.50
2023-03-19T08:12:26.170Z,101027.84
2023-03-19T08:14:53.052Z,101047.97
2023-03-19T08:17:19.886Z,101076.88
2023-03-19T08:19:47.081Z,101064.50
2023-03-19T08:22:13.968Z,101039.44
2023-03-19T08:24:40.970Z,101067.28
2023-03-19T08:27:08.226Z,101033.56
2023-03-19T08:29:35.242Z,100987.00
2023-03-19T08:32:02.072Z,101065.41
2023-03-19T08:34:28.915Z,101085.16
2023-03-19T08:36:55.955Z,101081.88
2023-03-19T08:39:22.694Z,101081.00
2023-03-19T08:41:49.466Z,101082.00
2023-03-19T08:44:16.536Z,101088.59
2023-03-19T08:46:43.331Z,101091.41
2023-03-19T08:49:10.102Z,101065.03
2023-03-19T08:51:36.959Z,100996.28
2023-03-19T08:54:03.814Z,101053.59
2023-03-19T08:56:30.596Z,101098.44
2023-03-19T08:58:57.741Z,101094.97
2023-03-19T09:01:24.601Z,101097.66
2023-03-19T09:03:51.369Z,101100.03
2023-03-19T09:06:18.246Z,101076.06
2023-03-19T09:08:45.052Z,101104.97
2023-03-19T09:11:11.900Z,101082.72
2023-03-19T09:13:39.013Z,101101.88
2023-03-19T09:16:06.781Z,101094.88
2023-03-19T09:18:34.204Z,101100.03
2023-03-19T09:21:01.262Z,101097.38
2023-03-19T09:23:28.054Z,101102.84
2023-03-19T09:25:54.791Z,101095.63
2023-03-19T09:28:22.824Z,101076.34
2023-03-19T09:30:50.060Z,101078.59
2023-03-19T09:33:17.331Z,101086.97
2023-03-19T09:35:44.282Z,101076.06
2023-03-19T09:38:11.127Z,101093.09
2023-03-19T09:41:10.992Z,101076.94
2023-03-19T09:43:54.483Z,101085.97
2023-03-19T09:46:23.942Z,101095.03
2023-03-19T09:49:04.051Z,101057.72
2023-03-19T09:51:36.478Z,101084.13
2023-03-19T09:54:18.340Z,101086.31
2023-03-19T09:56:45.182Z,101095.16
2023-03-19T09:59:12.078Z,101080.16
2023-03-19T10:01:39.196Z,101052.19
2023-03-19T10:04:24.820Z,101097.84
2023-03-19T10:06:52.135Z,101056.91
2023-03-19T10:09:21.871Z,101102.31
2023-03-19T10:12:09.958Z,101094.88
2023-03-19T10:14:55.280Z,101102.50
2023-03-19T10:17:27.880Z,101077.00
2023-03-19T10:20:01.640Z,101084.75
2023-03-19T10:22:36.895Z,101102.16
2023-03-19T10:25:05.022Z,101114.66
2023-03-19T10:27:31.729Z,101088.16
2023-03-19T10:29:58.589Z,101123.75
2023-03-19T10:32:38.689Z,101110.53
2023-03-19T10:35:10.130Z,101100.81
2023-03-19T10:37:38.142Z,101111.75
2023-03-19T10:40:11.875Z,101097.34
2023-03-19T10:43:18.352Z,101090.72
2023-03-19T10:45:45.378Z,101095.28
2023-03-19T10:48:18.784Z,101084.28
2023-03-19T10:50:58.347Z,101086.06
2023-03-19T10:53:35.169Z,101064.75
2023-03-19T10:56:07.742Z,101041.13
2023-03-19T10:58:35.956Z,101055.00
2023-03-19T11:01:10.000Z,101046.91
2023-03-19T11:03:53.323Z,101052.88
2023-03-19T11:06:28.263Z,101023.94
2023-03-19T11:09:10.829Z,101054.59
2023-03-19T11:11:50.692Z,101042.06
2023-03-19T11:14:22.606Z,101005.91
2023-03-19T11:17:08.712Z,101012.31
2023-03-19T11:19:42.313Z,101026.31
2023-03-19T11:22:38.686Z,101027.00
2023-03-19T11:25:38.964Z,101022.34
2023-03-19T11:28:26.314Z,101003.25
2023-03-19T11:30:59.355Z,101031.97
2023-03-19T11:33:27.207Z,101041.13
2023-03-19T11:36:14.132Z,101031.50
2023-03-19T11:39:11.866Z,101035.19
2023-03-19T11:41:58.777Z,101038.72
2023-03-19T11:44:42.459Z,101052.19
2023-03-19T11:47:33.091Z,101020.53
2023-03-19T11:50:18.786Z,101053.31
2023-03-19T11:53:00.660Z,101055.91
2023-03-19T11:55:34.053Z,101052.28
2023-03-19T11:58:16.263Z,101055.50
2023-03-19T12:00:57.463Z,101024.44
2023-03-19T12:03:59.275Z,101036.69
2023-03-19T12:06:41.506Z,101031.91
2023-03-19T12:09:37.396Z,101035.69
2023-03-19T12:12:07.304Z,101033.34
2023-03-19T12:14:49.831Z,101029.75
2023-03-19T12:17:35.004Z,101016.03
2023-03-19T12:20:12.205Z,101011.34
2023-03-19T12:22:57.048Z,101013.00
2023-03-19T12:25:48.108Z,101004.16
2023-03-19T12:28:24.357Z,101013.72
2023-03-19T12:31:26.469Z,100980.78
2023-03-19T12:34:34.057Z,101000.03
2023-03-19T12:37:21.606Z,100995.69
2023-03-19T12:40:15.059Z,100998.59
2023-03-19T12:42:42.285Z,100995.03
2023-03-19T12:45:24.640Z,100974.41
2023-03-19T12:47:51.580Z,100995.44
2023-03-19T12:50:18.470Z,100982.19
2023-03-19T12:52:49.683Z,100966.63
2023-03-19T12:55:19.433Z,100974.44
2023-03-19T12:57:52.029Z,100934.72
2023-03-19T13:00:27.421Z,100943.41
2023-03-19T13:03:07.654Z,100954.28
2023-03-19T13:05:46.384Z,100953.28
2023-03-19T13:08:40.190Z,100955.59
2023-03-19T13:11:18.936Z,100906.66
2023-03-19T13:13:49.958Z,100955.31
2023-03-19T13:16:34.496Z,100932.94
2023-03-19T13:19:18.366Z,100926.97
2023-03-19T13:21:45.207Z,100911.56
2023-03-19T13:24:21.993Z,100930.66
2023-03-19T13:26:53.230Z,100927.19
2023-03-19T13:29:32.979Z,100927.91
2023-03-19T13:32:04.935Z,100908.47
2023-03-19T13:34:33.366Z,100909.53
2023-03-19T13:37:16.555Z,100884.59
2023-03-19T13:39:43.427Z,100874.38
2023-03-19T13:42:20.268Z,100904.72
2023-03-19T13:44:50.557Z,100896.13
2023-03-19T13:47:29.386Z,100895.34
2023-03-19T13:50:22.410Z,100904.38
2023-03-19T13:52:51.083Z,100910.88
2023-03-19T13:55:44.938Z,100903.47
2023-03-19T13:58:28.983Z,100906.94
2023-03-19T14:00:58.511Z,100898.50
2023-03-19T14:03:26.723Z,100898.38
2023-03-19T14:05:55.244Z,100899.25
2023-03-19T14:08:47.792Z,100890.72
2023-03-19T14:11:25.344Z,100850.22
2023-03-19T14:13:52.743Z,100886.38
2023-03-19T14:16:26.998Z,100869.00
2023-03-19T14:18:57.759Z,100831.09
2023-03-19T14:21:46.648Z,100871.13
2023-03-19T14:24:55.362Z,100886.09
2023-03-19T14:27:33.744Z,100891.50
2023-03-19T14:30:03.114Z,100892.47
2023-03-19T14:32:35.894Z,100888.63
2023-03-19T14:35:05.182Z,100883.31
2023-03-19T14:37:38.052Z,100887.59
2023-03-19T14:40:17.261Z,100885.59
2023-03-19T14:42:47.218Z,100881.53
2023-03-19T14:45:14.589Z,100890.81
2023-03-19T14:47:46.503Z,100874.13
2023-03-19T14:50:13.334Z,100897.91
2023-03-19T14:53:12.171Z,100879.06
2023-03-19T14:55:39.032Z,100877.75
2023-03-19T14:58:05.741Z,100851.63
2023-03-19T15:00:46.954Z,100849.31
2023-03-19T15:03:37.394Z,100888.69
2023-03-19T15:06:05.544Z,100875.66
2023-03-19T15:08:33.374Z,100872.63
2023-03-19T15:11:16.376Z,100891.69
2023-03-19T15:14:24.683Z,100885.91
2023-03-19T15:17:07.025Z,100849.19
2023-03-19T15:19:33.890Z,100905.38
2023-03-19T15:22:16.172Z,100855.78
2023-03-19T15:24:43.146Z,100895.47
2023-03-19T15:27:26.651Z,100876.41
2023-03-19T15:29:53.768Z,100898.75
2023-03-19T15:32:56.365Z,100893.72
2023-03-19T15:36:12.153Z,100891.69
2023-03-19T15:38:42.346Z,100896.94
2023-03-19T15:41:09.165Z,100887.53
2023-03-19T15:43:37.109Z,100850.19
2023-03-19T15:46:04.119Z,100911.28
2023-03-19T15:48:44.020Z,100898.81
2023-03-19T15:51:11.293Z,100903.63
2023-03-19T15:53:38.620Z,100903.63
2023-03-19T15:56:05.761Z,100873.22
2023-03-19T15:58:37.220Z,100890.63
2023-03-19T16:01:06.193Z,100884.59
2023-03-19T16:03:38.317Z,100894.22
2023-03-19T16:06:14.441Z,100893.19
2023-03-19T16:08:53.595Z,100890.16
2023-03-19T16:11:27.966Z,100891.19
2023-03-19T16:14:27.227Z,100890.38
2023-03-19T16:17:01.097Z,100856.28
2023-03-19T16:19:36.551Z,100893.31
2023-03-19T16:22:11.960Z,100865.44
2023-03-19T16:24:43.083Z,100888.31
2023-03-19T16:27:14.539Z,100852.00
2023-03-19T16:29:42.624Z,100860.69
2023-03-19T16:32:14.534Z,100894.06
2023-03-19T16:35:05.209Z,100891.56
2023-03-19T16:37:43.398Z,100890.56
2023-03-19T16:40:13.396Z,100910.41
2023-03-19T16:43:14.582Z,100904.56
2023-03-19T16:45:42.643Z,100908.38
2023-03-19T16:48:09.504Z,100907.53
2023-03-19T16:50:41.251Z,100905.84
2023-03-19T16:53:27.931Z,100909.81
2023-03-19T16:55:55.435Z,100901.91
2023-03-19T16:58:31.972Z,100902.63
2023-03-19T17:00:59.252Z,100910.25
2023-03-19T17:03:26.288Z,100921.75
2023-03-19T17:05:53.032Z,100919.44
2023-03-19T17:08:22.015Z,100921.66
2023-03-19T17:10:52.385Z,100919.31
2023-03-19T17:13:21.885Z,100870.91
2023-03-19T17:15:49.178Z,100904.00
2023-03-19T17:18:23.755Z,100910.81
2023-03-19T17:20:56.014Z,100916.13
2023-03-19T17:23:27.014Z,100938.91
2023-03-19T17:25:54.272Z,100938.91
2023-03-19T17:28:21.341Z,100893.59
2023-03-19T17:30:48.168Z,100925.34
2023-03-19T17:33:20.734Z,100936.31
2023-03-19T17:35:47.527Z,100895.84
2023-03-19T17:38:15.676Z,100936.63
2023-03-19T17:40:42.489Z,100941.88
2023-03-19T17:43:10.430Z,100933.91
2023-03-19T17:45:37.229Z,100910.06
2023-03-19T17:48:04.138Z,100947.50
2023-03-19T17:50:31.580Z,100924.69
2023-03-19T17:52:58.573Z,100927.94
2023-03-19T17:55:27.089Z,100932.41
2023-03-19T17:57:54.029Z,100911.69
2023-03-19T18:00:22.475Z,100940.13
2023-03-19T18:02:50.182Z,100921.94
2023-03-19T18:05:26.423Z,100916.69
2023-03-19T18:07:56.775Z,100944.69
2023-03-19T18:10:29.789Z,100942.28
2023-03-19T18:13:00.131Z,100917.00
2023-03-19T18:15:27.721Z,100970.03
2023-03-19T18:17:56.291Z,100918.06
2023-03-19T18:20:25.396Z,100949.50
2023-03-19T18:22:52.199Z,100889.94
2023-03-19T18:25:23.752Z,100915.69
2023-03-19T18:27:51.408Z,100953.91
2023-03-19T18:30:19.746Z,100896.72
2023-03-19T18:32:47.934Z,100948.88
2023-03-19T18:35:18.723Z,100939.66
2023-03-19T18:37:46.588Z,100942.69
2023-03-19T18:40:19.592Z,100964.56
2023-03-19T18:42:47.167Z,100962.16
2023-03-19T18:45:14.191Z,100962.00
2023-03-19T18:47:41.689Z,100926.69
2023-03-19T18:50:29.592Z,100959.69
2023-03-19T18:52:56.745Z,100957.03
2023-03-19T18:55:27.126Z,100953.19
2023-03-19T18:57:55.337Z,100920.44
2023-03-19T19:00:27.764Z,100966.63
2023-03-19T19:02:54.798Z,100950.16
2023-03-19T19:05:23.830Z,100913.00
2023-03-19T19:07:51.401Z,100930.06
2023-03-19T19:10:18.295Z,100973.19
2023-03-19T19:12:46.455Z,100965.13
2023-03-19T19:15:33.540Z,100966.03
2023-03-19T19:18:00.852Z,100966.13
2023-03-19T19:20:28.843Z,100952.13
2023-03-19T19:22:56.018Z,100979.31
2023-03-19T19:25:24.514Z,100962.81
2023-03-19T19:28:05.843Z,100972.66
2023-03-19T19:30:32.718Z,100927.69
2023-03-19T19:32:59.753Z,100951.44
2023-03-19T19:35:27.791Z,100946.69
2023-03-19T19:37:55.623Z,100971.94
2023-03-19T19:40:25.580Z,100931.69
2023-03-19T19:42:52.514Z,100975.59
2023-03-19T19:45:28.199Z,100930.66
2023-03-19T19:47:55.075Z,100897.19
2023-03-19T19:50:25.406Z,100962.56
2023-03-19T19:52:52.919Z,100972.94
2023-03-19T19:55:19.828Z,100979.41
2023-03-19T19:57:47.935Z,100963.47
2023-03-19T20:00:29.992Z,100919.31
2023-03-19T20:02:57.759Z,100967.66
2023-03-19T20:05:26.174Z,100949.53
2023-03-19T20:07:55.345Z,100968.81
2023-03-19T20:10:23.338Z,100941.50
2023-03-19T20:12:54.914Z,100964.88
2023-03-19T20:15:29.674Z,100971.63
2023-03-19T20:17:56.686Z,100975.53
2023-03-19T20:20:23.640Z,100990.72
2023-03-19T20:22:51.171Z,100985.41
2023-03-19T20:25:19.264Z,100966.91
2023-03-19T20:27:46.618Z,100986.53
2023-03-19T20:30:45.082Z,100952.16
2023-03-19T20:33:12.797Z,100984.03
2023-03-19T20:35:39.595Z,100985.75
2023-03-19T20:38:06.946Z,101001.16
2023-03-19T20:40:43.424Z,100996.38
2023-03-19T20:43:28.516Z,100967.34
2023-03-19T20:45:58.889Z,100994.69
2023-03-19T20:48:25.900Z,100973.72
2023-03-19T20:50:52.882Z,100992.47
2023-03-19T20:53:19.690Z,101004.84
2023-03-19T20:55:47.973Z,101004.84
2023-03-19T20:58:27.724Z,100930.50
2023-03-19T21:00:54.725Z,100995.34
2023-03-19T21:03:22.739Z,100970.22
2023-03-19T21:05:55.641Z,100996.75
2023-03-19T21:08:43.576Z,100991.13
2023-03-19T21:11:21.367Z,100990.28
2023-03-19T21:13:49.694Z,100997.06
2023-03-19T21:16:25.517Z,100991.19
2023-03-19T21:18:54.024Z,100960.72
2023-03-19T21:21:29.948Z,100950.66
2023-03-19T21:24:08.127Z,100990.88
2023-03-19T21:26:38.762Z,101004.34
2023-03-19T21:29:07.408Z,100935.34
2023-03-19T21:31:34.501Z,100999.88
2023-03-19T21:34:01.775Z,100951.25
2023-03-19T21:36:29.114Z,100990.94
2023-03-19T21:38:56.497Z,100959.91
2023-03-19T21:41:28.527Z,100979.72
2023-03-19T21:44:10.145Z,100951.81
2023-03-19T21:46:37.134Z,100987.56
2023-03-19T21:49:04.029Z,100945.94
2023-03-19T21:51:30.880Z,100992.63
2023-03-19T21:53:58.728Z,100884.19
2023-03-19T21:56:32.724Z,100985.91
2023-03-19T21:59:04.645Z,100919.41
2023-03-19T22:01:31.400Z,100992.09
2023-03-19T22:03:58.413Z,100958.88
2023-03-19T22:06:25.699Z,100918.09
2023-03-19T22:08:54.268Z,100980.94
2023-03-19T22:11:28.859Z,100986.06
2023-03-19T22:13:59.600Z,100977.09
2023-03-19T22:16:26.368Z,100987.25
2023-03-19T22:18:53.291Z,100974.38
2023-03-19T22:21:21.897Z,100920.69
2023-03-19T22:23:49.001Z,100941.34
2023-03-19T22:26:31.636Z,100998.97
2023-03-19T22:29:00.025Z,101007.13
2023-03-19T22:31:26.804Z,100947.00
2023-03-19T22:33:53.675Z,101002.09
2023-03-19T22:36:20.452Z,100918.47
2023-03-19T22:38:48.857Z,100987.81
2023-03-19T22:41:18.117Z,100970.47
2023-03-19T22:43:45.553Z,100875.97
2023-03-19T22:46:13.919Z,100969.06
2023-03-19T22:48:42.167Z,100980.28
2023-03-19T22:51:11.440Z,100986.16
2023-03-19T22:53:38.158Z,100969.94
2023-03-19T22:56:05.273Z,100949.81
2023-03-19T22:58:41.996Z,100880.19
2023-03-19T23:01:21.389Z,100973.28
2023-03-19T23:03:49.122Z,100959.81
2023-03-19T23:06:29.222Z,100939.13
2023-03-19T23:08:57.461Z,100967.13
2023-03-19T23:11:24.547Z,100937.19
2023-03-19T23:13:51.652Z,100937.16
2023-03-19T23:16:23.791Z,100964.59
2023-03-19T23:18:50.841Z,100973.53
2023-03-19T23:21:18.312Z,100968.25
2023-03-19T23:23:45.432Z,100960.66
2023-03-19T23:26:32.108Z,100939.69
2023-03-19T23:29:03.657Z,100906.72
2023-03-19T23:31:30.655Z,100955.41
2023-03-19T23:33:57.581Z,100953.50
2023-03-19T23:36:24.330Z,100943.22
2023-03-19T23:38:51.839Z,100937.66
2023-03-19T23:41:24.239Z,100954.47
2023-03-19T23:43:52.026Z,100954.78
2023-03-19T23:46:19.670Z,100955.59
2023-03-19T23:48:46.596Z,100957.56
2023-03-19T23:51:14.384Z,100943.84
2023-03-19T23:53:41.457Z,100954.53
2023-03-19T23:56:18.031Z,100975.50
2023-03-19T23:58:44.805Z,100954.53
